Time;durP1;ratioP1;P1;durP2;ratioP2;P2;SDS_P1;SDS_P2;PMS_P1;PMS_P2;Temp;Humidity;BMP_temperature;BMP_pressure;BME280_temperature;BME280_humidity;BME280_pressure;Samples;Min_cycle;Max_cycle;Signal;HPM_P1;HPM_P2
2023/05/24 00:02:06;;;;;;;10.85;3.65;;;;;;;7.98;89.33;99923.13;5103746;28;20047;-63
2023/05/24 00:04:35;;;;;;;12.20;4.10;;;;;;;7.98;91.69;99925.81;5098364;28;20105;-63
2023/05/24 00:07:03;;;;;;;9.75;4.47;;;;;;;7.96;91.23;99927.88;5087353;28;20101;-63
2023/05/24 00:09:30;;;;;;;9.75;4.20;;;;;;;7.82;89.47;99926.25;5100798;28;20074;-63
2023/05/24 00:11:57;;;;;;;17.75;4.32;;;;;;;7.78;90.32;99931.16;5082343;28;20431;-63
2023/05/24 00:14:24;;;;;;;13.85;3.75;;;;;;;7.86;90.50;99935.50;5093803;28;20072;-63
2023/05/24 00:16:51;;;;;;;12.23;4.00;;;;;;;7.75;90.69;99930.78;5095939;28;20068;-63
2023/05/24 00:19:21;;;;;;;12.88;4.03;;;;;;;7.73;90.44;99932.81;5102013;28;20054;-63
2023/05/24 00:21:49;;;;;;;12.45;4.38;;;;;;;7.71;90.37;99940.22;5102618;28;20134;-63
2023/05/24 00:24:16;;;;;;;16.33;4.60;;;;;;;7.60;90.83;99938.19;5107176;28;20044;-63
2023/05/24 00:26:44;;;;;;;11.32;4.07;;;;;;;7.56;91.08;99945.75;5085754;28;20044;-63
2023/05/24 00:29:11;;;;;;;11.15;3.85;;;;;;;7.61;92.30;99951.28;5102385;28;20422;-63
2023/05/24 00:31:38;;;;;;;11.38;3.80;;;;;;;7.55;90.40;99952.94;5065765;28;20040;-63
2023/05/24 00:34:05;;;;;;;17.55;4.50;;;;;;;7.47;90.59;99947.81;5087046;28;20051;-62
2023/05/24 00:36:33;;;;;;;13.70;4.18;;;;;;;7.44;90.83;99950.06;5084936;28;20047;-62
2023/05/24 00:39:01;;;;;;;16.52;4.25;;;;;;;7.36;91.08;99948.41;5104424;28;20047;-63
2023/05/24 00:41:28;;;;;;;14.73;4.88;;;;;;;7.41;91.49;99953.94;5092631;28;20458;-62
2023/05/24 00:43:55;;;;;;;11.65;3.80;;;;;;;7.32;91.73;99953.34;5103062;28;20040;-63
2023/05/24 00:46:25;;;;;;;12.65;3.70;;;;;;;7.33;91.28;99954.97;5103306;28;20048;-63
2023/05/24 00:48:54;;;;;;;11.95;3.50;;;;;;;7.25;91.79;99949.84;5101751;28;20187;-63
2023/05/24 00:51:21;;;;;;;18.38;4.03;;;;;;;7.42;92.80;99952.13;5070807;28;20155;-63
2023/05/24 00:53:48;;;;;;;16.38;3.72;;;;;;;7.21;91.90;99956.59;5099408;28;20040;-64
2023/05/24 00:56:17;;;;;;;13.43;4.15;;;;;;;7.16;91.97;99958.22;5081856;28;20123;-63
2023/05/24 00:58:44;;;;;;;17.05;3.90;;;;;;;7.12;92.43;99950.66;5090029;28;20047;-63
2023/05/24 01:01:11;;;;;;;8.82;3.88;;;;;;;7.09;92.46;99943.06;5094568;28;20154;-63
2023/05/24 01:03:38;;;;;;;17.13;4.53;;;;;;;7.01;92.48;99945.88;5098485;28;20113;-63
2023/05/24 01:06:07;;;;;;;12.15;4.10;;;;;;;6.99;93.24;99947.97;5098874;28;20127;-63
2023/05/24 01:08:54;;;;;;;11.68;3.90;;;;;;;6.93;92.54;99954.06;5098299;28;20036;-63
2023/05/24 01:11:26;;;;;;;9.25;3.97;;;;;;;6.87;93.00;99945.06;5091680;28;20559;-63
2023/05/24 01:13:59;;;;;;;11.02;4.25;;;;;;;6.89;93.66;99943.00;5100521;28;20031;-63
2023/05/24 01:16:30;;;;;;;12.45;3.70;;;;;;;6.94;94.94;99950.41;5096006;28;20044;-63
2023/05/24 01:18:59;;;;;;;13.50;4.35;;;;;;;6.82;93.35;99946.69;5097796;28;20047;-63
2023/05/24 01:21:38;;;;;;;12.07;3.92;;;;;;;6.79;94.43;99942.56;5081285;28;20067;-62
2023/05/24 01:24:16;;;;;;;13.77;4.30;;;;;;;6.76;96.03;99947.47;5083109;28;20421;-63
2023/05/24 01:27:00;;;;;;;15.55;4.80;;;;;;;6.74;95.60;99949.50;5097249;28;20311;-63
2023/05/24 01:29:27;;;;;;;14.02;4.05;;;;;;;6.53;94.88;99940.63;5102605;28;20059;-63
2023/05/24 01:31:54;;;;;;;11.45;3.58;;;;;;;6.57;95.44;99939.22;5075074;28;20048;-63
2023/05/24 01:34:21;;;;;;;16.08;4.35;;;;;;;6.68;97.51;99943.13;5083272;28;20131;-63
2023/05/24 01:36:48;;;;;;;21.88;4.25;;;;;;;6.77;98.70;99943.78;5103640;28;20038;-63
2023/05/24 01:39:15;;;;;;;14.00;4.00;;;;;;;6.74;96.08;99937.03;5083735;28;20063;-62
2023/05/24 01:41:45;;;;;;;9.25;3.88;;;;;;;6.59;94.55;99931.84;5084550;28;20054;-62
2023/05/24 01:44:16;;;;;;;7.57;3.47;;;;;;;6.55;93.88;99935.91;5096673;28;20062;-63
2023/05/24 01:46:45;;;;;;;21.00;4.38;;;;;;;6.42;95.24;99938.53;5080166;28;20385;-63
2023/05/24 01:49:17;;;;;;;10.98;4.18;;;;;;;6.37;96.18;99946.28;5096014;28;20040;-63
2023/05/24 01:51:48;;;;;;;15.82;4.00;;;;;;;6.38;96.66;99945.25;5087269;28;20452;-63
2023/05/24 01:54:15;;;;;;;15.30;4.13;;;;;;;6.36;96.31;99945.44;5079308;28;20070;-62
2023/05/24 01:56:43;;;;;;;12.30;3.85;;;;;;;6.40;98.18;99953.88;5097244;28;20122;-62
2023/05/24 01:59:10;;;;;;;12.82;4.25;;;;;;;6.29;97.94;99952.59;5079594;28;20081;-63
2023/05/24 02:01:38;;;;;;;19.73;4.40;;;;;;;6.24;97.37;99955.84;5078994;28;20554;-63
2023/05/24 02:04:05;;;;;;;19.17;4.22;;;;;;;6.20;98.22;99951.13;5103181;28;20497;-63
2023/05/24 02:06:32;;;;;;;16.38;4.38;;;;;;;6.23;98.68;99958.69;5098067;28;20052;-63
2023/05/24 02:09:00;;;;;;;15.25;3.70;;;;;;;6.16;96.67;99957.84;5081248;28;20059;-63
2023/05/24 02:11:27;;;;;;;13.45;3.65;;;;;;;6.19;96.42;99952.97;5093267;28;20101;-63
2023/05/24 02:13:54;;;;;;;13.30;3.70;;;;;;;6.14;95.77;99949.22;5079597;28;20093;-63
2023/05/24 02:16:23;;;;;;;13.05;3.60;;;;;;;6.09;95.78;99946.31;5077488;28;20040;-63
2023/05/24 02:18:52;;;;;;;17.17;4.15;;;;;;;6.06;96.99;99952.84;5078936;28;20047;-61
2023/05/24 02:21:19;;;;;;;16.95;3.70;;;;;;;6.08;97.29;99945.50;5105124;28;20070;-63
2023/05/24 02:23:46;;;;;;;12.70;3.80;;;;;;;6.05;96.31;99951.22;5083911;28;20370;-63
2023/05/24 02:26:13;;;;;;;14.15;3.53;;;;;;;5.93;96.74;99958.88;5104558;28;20549;-63
2023/05/24 02:28:40;;;;;;;21.33;3.70;;;;;;;5.92;97.37;99961.75;5096287;28;20559;-63
2023/05/24 02:31:07;;;;;;;13.48;3.58;;;;;;;5.84;97.55;99949.41;5099353;28;20113;-63
2023/05/24 02:33:34;;;;;;;10.30;3.63;;;;;;;5.81;97.52;99958.59;5102291;28;20138;-63
2023/05/24 02:36:03;;;;;;;14.68;4.22;;;;;;;5.92;97.41;99953.78;5098151;28;20573;-63
2023/05/24 02:38:30;;;;;;;10.55;3.75;;;;;;;5.84;96.55;99950.25;5096527;28;20062;-63
2023/05/24 02:40:57;;;;;;;18.83;3.55;;;;;;;5.70;96.73;99943.19;5101121;28;20040;-63
2023/05/24 02:43:24;;;;;;;10.93;3.80;;;;;;;5.71;97.01;99944.81;5081463;28;20043;-63
2023/05/24 02:45:51;;;;;;;15.70;3.80;;;;;;;5.67;97.84;99938.25;5087460;28;20032;-63
2023/05/24 02:48:18;;;;;;;13.13;3.70;;;;;;;5.67;97.99;99935.59;5104346;28;20529;-61
2023/05/24 02:50:46;;;;;;;18.10;3.90;;;;;;;5.62;97.88;99930.84;5085478;28;20044;-63
2023/05/24 02:53:14;;;;;;;16.30;4.00;;;;;;;5.58;97.82;99934.91;5085011;28;20139;-63
2023/05/24 02:55:42;;;;;;;18.45;3.90;;;;;;;5.66;99.05;99925.94;5084633;28;20059;-64
2023/05/24 02:58:10;;;;;;;12.50;3.78;;;;;;;5.53;99.03;99925.84;5082858;28;20459;-62
2023/05/24 03:00:38;;;;;;;10.60;3.90;;;;;;;5.66;100.00;99925.13;5094385;28;20048;-63
2023/05/24 03:03:06;;;;;;;17.52;3.50;;;;;;;5.48;99.62;99920.28;5083978;28;20067;-63
2023/05/24 03:05:33;;;;;;;10.70;3.58;;;;;;;5.50;99.65;99920.94;5098623;28;20048;-62
2023/05/24 03:08:00;;;;;;;18.20;4.10;;;;;;;5.43;99.31;99923.53;5098882;28;20067;-63
2023/05/24 03:10:29;;;;;;;12.10;3.40;;;;;;;5.48;99.60;99920.28;5078458;28;20044;-63
2023/05/24 03:12:56;;;;;;;12.75;3.67;;;;;;;5.40;98.88;99919.41;5101749;28;20043;-63
2023/05/24 03:15:23;;;;;;;15.27;3.72;;;;;;;5.43;98.47;99920.06;5085765;28;20465;-63
2023/05/24 03:17:52;;;;;;;13.48;3.75;;;;;;;5.39;98.21;99924.91;5077044;28;20465;-63
2023/05/24 03:20:19;;;;;;;14.88;3.28;;;;;;;5.34;97.84;99925.50;5078091;28;20043;-64
2023/05/24 03:22:46;;;;;;;11.75;3.53;;;;;;;5.34;98.87;99920.19;5103341;28;20126;-62
2023/05/24 03:25:13;;;;;;;10.30;2.90;;;;;;;5.35;97.89;99929.00;5101483;28;20047;-63
2023/05/24 03:27:42;;;;;;;19.55;3.83;;;;;;;5.32;97.65;99924.88;5086927;28;20120;-63
2023/05/24 03:30:10;;;;;;;10.38;3.20;;;;;;;5.29;100.00;99922.59;5105968;28;20044;-63
2023/05/24 03:32:45;;;;;;;11.52;3.65;;;;;;;5.38;99.31;99918.78;5084307;28;20493;-62
2023/05/24 03:35:13;;;;;;;14.45;3.60;;;;;;;5.38;97.95;99928.59;5087413;28;20063;-62
2023/05/24 03:37:41;;;;;;;14.05;3.63;;;;;;;5.52;100.00;99926.88;5101785;28;20123;-62
2023/05/24 03:40:09;;;;;;;15.15;3.63;;;;;;;5.58;98.97;99929.56;5104378;28;20035;-62
2023/05/24 03:43:10;;;;;;;13.77;4.05;;;;;;;5.45;96.94;99926.00;5090668;28;20040;-62
2023/05/24 03:45:44;;;;;;;16.00;3.72;;;;;;;5.51;97.28;99943.84;5100850;28;20040;-62
2023/05/24 03:48:11;;;;;;;12.48;4.00;;;;;;;6.00;95.45;99937.69;5103048;28;20039;-63
2023/05/24 03:50:39;;;;;;;13.00;3.53;;;;;;;6.54;92.69;99944.94;5104295;28;20039;-64
2023/05/24 03:53:10;;;;;;;14.48;3.88;;;;;;;7.21;88.19;99937.13;5103643;28;20079;-62
2023/05/24 03:55:38;;;;;;;16.23;3.70;;;;;;;7.86;84.95;99930.16;5087380;28;20043;-62
2023/05/24 03:58:06;;;;;;;9.48;3.17;;;;;;;7.55;82.92;99930.78;5088658;28;20536;-62
2023/05/24 04:00:34;;;;;;;12.85;3.13;;;;;;;7.26;83.14;99932.84;5071577;28;20514;-62
2023/05/24 04:03:05;;;;;;;12.95;3.35;;;;;;;7.21;84.76;99932.59;5085305;28;20491;-62
2023/05/24 04:05:33;;;;;;;14.18;3.55;;;;;;;7.38;85.09;99930.38;5082906;28;20123;-63
2023/05/24 04:08:00;;;;;;;16.13;3.25;;;;;;;8.16;80.97;99933.19;5076912;28;20108;-62
2023/05/24 04:10:27;;;;;;;14.30;3.50;;;;;;;8.52;81.97;99941.72;5093252;28;20425;-63
2023/05/24 04:12:55;;;;;;;8.07;2.97;;;;;;;9.52;75.89;99947.31;5096967;28;20040;-63
2023/05/24 04:15:22;;;;;;;16.88;3.50;;;;;;;9.42;74.24;99946.97;5095187;28;20153;-63
2023/05/24 04:17:53;;;;;;;7.88;2.50;;;;;;;11.07;67.38;99950.81;5077385;28;20155;-63
2023/05/24 04:20:22;;;;;;;12.55;3.33;;;;;;;11.75;64.16;99961.13;5088043;28;20457;-62
2023/05/24 04:22:49;;;;;;;12.38;3.30;;;;;;;12.50;61.84;99957.75;5081073;28;20504;-63
2023/05/24 04:25:17;;;;;;;8.75;2.97;;;;;;;11.53;63.47;99955.50;5081551;28;20059;-63
2023/05/24 04:27:47;;;;;;;13.27;3.03;;;;;;;12.33;64.07;99953.31;5101262;28;20490;-63
2023/05/24 04:30:14;;;;;;;12.70;3.17;;;;;;;13.31;59.14;99956.88;5098892;28;20436;-63
2023/05/24 04:32:43;;;;;;;9.82;3.00;;;;;;;12.92;59.09;99956.66;5061384;28;20432;-61
2023/05/24 04:35:12;;;;;;;15.27;3.58;;;;;;;13.15;57.20;99953.03;5081657;28;20046;-63
2023/05/24 04:37:39;;;;;;;14.65;3.47;;;;;;;12.92;57.59;99943.22;5080391;28;20063;-63
2023/05/24 04:40:08;;;;;;;13.00;3.15;;;;;;;12.72;58.44;99947.13;5102068;28;20169;-63
2023/05/24 04:42:35;;;;;;;15.98;3.22;;;;;;;12.71;58.26;99948.22;5104762;28;20059;-62
2023/05/24 04:45:02;;;;;;;9.98;3.00;;;;;;;14.20;55.21;99948.00;5107355;28;20139;-61
2023/05/24 04:47:30;;;;;;;14.50;3.45;;;;;;;14.49;53.10;99955.94;5099960;28;20058;-63
2023/05/24 04:49:57;;;;;;;18.15;3.88;;;;;;;14.76;52.66;99956.06;5099230;28;20105;-61
2023/05/24 04:52:25;;;;;;;28.23;4.45;;;;;;;15.19;50.47;99965.94;5098784;28;20075;-61
2023/05/24 04:54:54;;;;;;;17.45;3.28;;;;;;;14.96;51.14;99971.66;5100975;28;20093;-61
2023/05/24 04:57:21;;;;;;;37.42;4.85;;;;;;;14.74;53.14;99974.38;5097981;28;20493;-62
2023/05/24 04:59:48;;;;;;;25.83;4.05;;;;;;;15.00;51.74;99979.00;5102063;28;20493;-61
2023/05/24 05:02:18;;;;;;;19.08;3.40;;;;;;;13.86;55.12;99969.63;5105413;28;20123;-61
2023/05/24 05:04:46;;;;;;;13.70;3.30;;;;;;;15.65;52.07;99966.38;5080611;28;20040;-61
2023/05/24 05:07:13;;;;;;;18.75;3.53;;;;;;;15.98;48.86;99971.78;5099037;28;20756;-61
2023/05/24 05:09:42;;;;;;;22.48;4.20;;;;;;;16.18;48.80;99980.03;5102614;28;20051;-61
2023/05/24 05:12:09;;;;;;;17.95;3.72;;;;;;;15.44;50.47;99984.28;5098572;28;20501;-63
2023/05/24 05:14:36;;;;;;;23.00;3.72;;;;;;;15.04;52.77;99993.59;5081323;28;20051;-61
2023/05/24 05:17:03;;;;;;;23.27;4.20;;;;;;;16.15;49.71;99994.91;5098268;28;20393;-61
2023/05/24 05:19:31;;;;;;;17.33;3.33;;;;;;;15.69;51.89;99991.84;5098135;28;20051;-61
2023/05/24 05:21:58;;;;;;;24.02;4.18;;;;;;;15.84;50.47;99982.22;5100962;28;20042;-61
2023/05/24 05:24:25;;;;;;;21.38;4.32;;;;;;;15.17;50.74;99986.19;5094447;28;20044;-63
2023/05/24 05:26:54;;;;;;;18.05;3.97;;;;;;;15.83;50.16;99980.59;5087048;28;20051;-61
2023/05/24 05:29:21;;;;;;;26.77;4.18;;;;;;;16.55;48.96;99982.69;5100407;27;20104;-61
2023/05/24 05:31:48;;;;;;;16.23;3.58;;;;;;;15.91;50.28;99988.22;5092716;28;20060;-61
2023/05/24 05:34:15;;;;;;;20.67;3.83;;;;;;;14.84;52.42;99988.78;5095362;28;20036;-61
2023/05/24 05:36:42;;;;;;;13.43;3.10;;;;;;;16.04;50.43;99995.06;5099804;28;20048;-61
2023/05/24 05:39:09;;;;;;;18.17;3.47;;;;;;;16.24;47.75;99997.91;5102088;28;20470;-62
2023/05/24 05:41:38;;;;;;;19.02;3.38;;;;;;;15.84;49.64;99993.03;5101167;28;20036;-62
2023/05/24 05:44:06;;;;;;;14.50;3.53;;;;;;;15.27;51.03;99997.88;5098623;28;20425;-61
2023/05/24 05:46:33;;;;;;;21.58;4.05;;;;;;;16.40;49.15;99996.13;5095572;28;20040;-62
2023/05/24 05:49:01;;;;;;;13.25;3.40;;;;;;;16.79;48.17;99999.31;5100211;28;20082;-61
2023/05/24 05:51:30;;;;;;;23.48;3.70;;;;;;;17.24;47.75;100007.84;5080588;28;20436;-61
2023/05/24 05:53:57;;;;;;;24.65;4.05;;;;;;;16.96;47.20;99999.09;5082302;28;20048;-61
2023/05/24 05:56:26;;;;;;;18.38;3.78;;;;;;;18.30;45.94;100008.97;5102655;28;20036;-61
2023/05/24 05:58:56;;;;;;;20.73;3.90;;;;;;;18.80;45.32;100019.19;5099901;28;20046;-62
2023/05/24 06:01:25;;;;;;;14.25;3.05;;;;;;;15.66;49.27;100030.16;5092324;28;20040;-62
2023/05/24 06:03:52;;;;;;;13.33;3.30;;;;;;;15.06;53.24;100021.16;5098029;28;20285;-61
2023/05/24 06:06:19;;;;;;;18.38;4.18;;;;;;;16.23;50.47;100017.94;5104898;28;20046;-61
2023/05/24 06:08:46;;;;;;;12.93;3.72;;;;;;;16.14;51.41;100019.47;5096951;28;20052;-61
2023/05/24 06:11:13;;;;;;;14.60;3.70;;;;;;;16.69;49.39;100020.06;5052692;28;20554;-61
2023/05/24 06:13:40;;;;;;;14.02;3.15;;;;;;;16.21;50.72;100019.28;5055282;28;20049;-61
2023/05/24 06:16:08;;;;;;;11.18;3.35;;;;;;;16.45;49.69;100022.38;5060722;28;20049;-61
2023/05/24 06:18:37;;;;;;;16.52;3.35;;;;;;;17.54;47.03;100017.13;5058613;28;20044;-61
2023/05/24 06:21:04;;;;;;;18.95;3.53;;;;;;;16.44;47.92;100018.06;5054410;28;20115;-61
2023/05/24 06:23:31;;;;;;;14.88;3.47;;;;;;;16.79;48.67;100014.75;5054792;28;20057;-61
2023/05/24 06:26:00;;;;;;;12.77;3.90;;;;;;;17.38;46.44;100022.50;5053779;28;20222;-61
2023/05/24 06:28:27;;;;;;;14.25;3.58;;;;;;;17.53;46.75;100010.88;5059869;28;20048;-61
2023/05/24 06:30:54;;;;;;;17.90;3.33;;;;;;;17.72;46.95;100022.00;5052873;28;20048;-61
2023/05/24 06:33:22;;;;;;;10.27;3.38;;;;;;;17.72;46.10;100027.41;5054917;28;20503;-62
2023/05/24 06:35:50;;;;;;;13.15;3.83;;;;;;;17.36;45.84;100029.28;5061538;28;20665;-61
2023/05/24 06:38:17;;;;;;;15.55;3.80;;;;;;;14.34;54.59;100040.16;5062330;28;20048;-61
2023/05/24 06:40:44;;;;;;;15.35;3.50;;;;;;;13.50;56.73;100030.97;5060427;28;20079;-61
2023/05/24 06:43:11;;;;;;;18.13;4.13;;;;;;;14.35;54.93;100028.31;5060679;28;20445;-61
2023/05/24 06:45:40;;;;;;;13.98;3.80;;;;;;;12.37;64.23;100019.81;5061132;28;20499;-61
2023/05/24 06:48:07;;;;;;;18.17;4.40;;;;;;;10.89;67.22;100016.06;5055520;28;20126;-61
2023/05/24 06:50:35;;;;;;;14.48;3.67;;;;;;;11.33;67.87;100014.84;5059015;28;20091;-61
2023/05/24 06:53:03;;;;;;;14.18;4.22;;;;;;;11.30;68.88;100017.97;5056536;28;20040;-60
2023/05/24 06:55:30;;;;;;;18.60;4.22;;;;;;;10.97;69.27;100005.81;5057192;28;20045;-61
2023/05/24 06:57:57;;;;;;;18.92;4.68;;;;;;;10.73;72.18;100007.59;5056126;28;20040;-61
2023/05/24 07:00:26;;;;;;;19.42;4.80;;;;;;;11.30;69.22;100017.97;5054965;28;20463;-61
2023/05/24 07:02:53;;;;;;;17.27;4.88;;;;;;;12.86;62.74;100008.75;5048555;28;20052;-61
2023/05/24 07:05:21;;;;;;;18.17;4.82;;;;;;;11.23;68.31;100003.81;5060429;28;20491;-61
2023/05/24 07:07:48;;;;;;;27.58;4.85;;;;;;;11.30;66.73;100001.06;5055402;28;20094;-61
2023/05/24 07:10:16;;;;;;;16.92;4.13;;;;;;;14.02;57.70;99993.03;5079264;28;20522;-62
2023/05/24 07:12:43;;;;;;;18.90;5.07;;;;;;;12.26;63.63;100005.34;5097718;28;20055;-61
2023/05/24 07:15:10;;;;;;;21.83;5.50;;;;;;;13.90;55.53;100002.28;5086096;28;20036;-61
2023/05/24 07:17:37;;;;;;;15.57;4.55;;;;;;;15.66;51.40;100013.13;5094292;28;20048;-61
2023/05/24 07:20:09;;;;;;;12.82;3.95;;;;;;;17.82;45.10;100016.63;5098018;28;20105;-61
2023/05/24 07:22:36;;;;;;;15.20;4.15;;;;;;;16.83;46.37;100023.97;5096731;28;20046;-61
2023/05/24 07:25:03;;;;;;;13.32;4.72;;;;;;;17.82;44.22;100035.63;5092733;28;20046;-61
2023/05/24 07:27:31;;;;;;;16.23;5.05;;;;;;;17.33;46.08;100041.47;5098863;28;20054;-61
2023/05/24 07:30:06;;;;;;;15.40;4.60;;;;;;;16.10;48.49;100045.41;5095355;28;20036;-61
2023/05/24 07:32:33;;;;;;;19.75;4.78;;;;;;;14.99;51.58;100046.72;5096957;28;20044;-61
2023/05/24 07:35:00;;;;;;;16.23;4.13;;;;;;;17.65;46.32;100030.41;5096380;28;20126;-61
2023/05/24 07:37:27;;;;;;;14.60;4.20;;;;;;;16.99;46.71;100049.19;5098296;28;20048;-61
2023/05/24 07:39:54;;;;;;;16.75;4.43;;;;;;;16.99;46.85;100041.88;5095396;28;20112;-61
2023/05/24 07:42:21;;;;;;;20.75;4.80;;;;;;;16.96;46.98;100039.72;5097191;28;20063;-61
2023/05/24 07:44:49;;;;;;;14.45;4.43;;;;;;;15.89;48.64;100055.25;5096952;28;20048;-61
2023/05/24 07:47:16;;;;;;;11.80;4.32;;;;;;;15.15;49.13;100051.25;5099560;28;20104;-61
2023/05/24 07:49:43;;;;;;;14.15;4.80;;;;;;;15.26;48.58;100055.69;5104024;28;20048;-61
2023/05/24 07:52:10;;;;;;;22.15;5.07;;;;;;;14.07;51.09;100051.63;5085000;28;20652;-60
2023/05/24 07:54:37;;;;;;;17.40;4.90;;;;;;;13.46;52.58;100056.78;5084621;28;20059;-63
2023/05/24 07:57:06;;;;;;;14.65;4.57;;;;;;;13.72;53.96;100054.53;5105242;28;20119;-61
2023/05/24 07:59:34;;;;;;;19.23;5.30;;;;;;;15.58;49.54;100054.13;5092275;28;20055;-61
2023/05/24 08:02:04;;;;;;;18.15;5.03;;;;;;;14.50;50.66;100046.59;5100352;28;20044;-62
2023/05/24 08:04:31;;;;;;;22.40;4.63;;;;;;;13.44;54.82;100048.13;5104484;28;20047;-61
2023/05/24 08:07:00;;;;;;;16.05;4.95;;;;;;;13.83;53.59;100056.34;5102008;28;20434;-63
2023/05/24 08:09:28;;;;;;;16.65;4.65;;;;;;;14.14;53.36;100049.56;5106393;28;20046;-64
2023/05/24 08:11:55;;;;;;;17.63;4.78;;;;;;;12.46;58.05;100057.94;5091618;28;20423;-63
2023/05/24 08:14:22;;;;;;;18.17;5.38;;;;;;;13.11;55.67;100063.06;5094135;28;20056;-62
2023/05/24 08:16:49;;;;;;;15.95;5.05;;;;;;;12.39;57.51;100057.22;5104182;28;20071;-63
2023/05/24 08:19:18;;;;;;;17.85;5.93;;;;;;;13.44;55.66;100053.50;5085018;28;20044;-62
2023/05/24 08:21:45;;;;;;;18.45;4.80;;;;;;;13.72;53.92;100051.84;5101030;28;20035;-62
2023/05/24 08:24:12;;;;;;;20.33;5.03;;;;;;;14.38;52.61;100052.91;5103221;28;20039;-65
2023/05/24 08:26:40;;;;;;;18.48;4.82;;;;;;;12.51;58.43;100058.03;5099643;28;20035;-62
2023/05/24 08:29:07;;;;;;;17.58;5.50;;;;;;;12.02;59.35;100057.44;5108205;28;20077;-62
2023/05/24 08:31:34;;;;;;;20.52;4.95;;;;;;;12.66;58.16;100055.69;5099977;28;20054;-62
2023/05/24 08:34:01;;;;;;;16.40;5.07;;;;;;;12.13;58.51;100059.31;5100487;28;20040;-62
2023/05/24 08:36:30;;;;;;;15.18;4.60;;;;;;;12.44;61.20;100060.84;5100233;28;20123;-62
2023/05/24 08:38:58;;;;;;;20.60;4.95;;;;;;;13.42;58.33;100066.38;5098390;28;20031;-62
2023/05/24 08:41:26;;;;;;;25.35;5.60;;;;;;;13.01;58.43;100057.50;5098422;28;20052;-62
2023/05/24 08:43:53;;;;;;;18.73;5.28;;;;;;;11.84;61.57;100056.44;5079136;28;20052;-61
2023/05/24 08:46:20;;;;;;;21.50;4.80;;;;;;;11.77;62.96;100071.81;5103267;28;20048;-63
2023/05/24 08:48:47;;;;;;;18.58;4.57;;;;;;;11.98;59.81;100064.31;5103141;28;20102;-62
2023/05/24 08:51:15;;;;;;;15.70;4.90;;;;;;;11.95;57.64;100057.53;5097549;28;20043;-62
2023/05/24 08:53:47;;;;;;;16.58;4.82;;;;;;;12.82;57.61;100056.00;5089825;28;20035;-62
2023/05/24 08:56:16;;;;;;;24.33;4.65;;;;;;;12.69;57.28;100055.19;5078962;28;20076;-62
2023/05/24 08:58:43;;;;;;;17.88;4.63;;;;;;;12.15;60.37;100059.88;5098058;28;20059;-62
2023/05/24 09:01:10;;;;;;;19.65;4.88;;;;;;;11.82;60.68;100055.03;5097784;28;20117;-62
2023/05/24 09:03:37;;;;;;;21.25;5.03;;;;;;;12.98;55.92;100049.91;5097927;28;20048;-62
2023/05/24 09:06:05;;;;;;;13.27;3.80;;;;;;;15.31;50.39;100050.34;5100490;28;20124;-62
2023/05/24 09:08:33;;;;;;;14.77;3.88;;;;;;;16.00;48.08;100043.47;5104874;28;20062;-62
2023/05/24 09:11:02;;;;;;;18.10;4.05;;;;;;;16.08;47.72;100040.28;5101480;28;20044;-62
2023/05/24 09:13:30;;;;;;;16.02;4.13;;;;;;;14.84;49.39;100044.66;5102938;28;20158;-62
2023/05/24 09:15:58;;;;;;;15.27;4.20;;;;;;;16.11;47.55;100047.84;5101253;28;20043;-62
2023/05/24 09:18:25;;;;;;;14.27;3.92;;;;;;;16.96;44.57;100031.59;5096379;28;20101;-62
2023/05/24 09:20:52;;;;;;;11.82;4.00;;;;;;;16.51;46.44;100038.38;5098550;28;20039;-62
2023/05/24 09:23:19;;;;;;;15.13;4.20;;;;;;;15.27;47.30;100043.00;5103129;28;20075;-62
2023/05/24 09:25:47;;;;;;;13.75;3.83;;;;;;;15.01;48.63;100039.19;5096428;28;20393;-62
2023/05/24 09:28:16;;;;;;;10.60;3.85;;;;;;;13.93;50.07;100034.97;5106103;28;20048;-62
2023/05/24 09:30:44;;;;;;;14.00;3.72;;;;;;;12.91;53.04;100033.06;5105869;28;20047;-62
2023/05/24 09:33:12;;;;;;;16.80;3.97;;;;;;;13.76;52.46;100028.75;5100494;28;20471;-62
2023/05/24 09:35:41;;;;;;;15.82;4.05;;;;;;;13.67;51.47;100022.13;5099000;28;20072;-62
2023/05/24 09:38:18;;;;;;;8.75;3.60;;;;;;;15.50;48.52;100014.84;5098570;28;20101;-62
2023/05/24 09:40:45;;;;;;;14.18;4.25;;;;;;;16.70;46.59;100008.16;5100156;28;20478;-62
2023/05/24 09:43:12;;;;;;;16.05;4.10;;;;;;;16.91;45.28;100012.63;5094859;28;20509;-62
2023/05/24 09:45:45;;;;;;;14.25;4.00;;;;;;;15.15;49.13;100002.66;5093814;28;20063;-62
2023/05/24 09:48:12;;;;;;;16.73;4.20;;;;;;;16.39;46.33;100000.69;5101416;28;20040;-62
2023/05/24 09:50:39;;;;;;;12.02;3.38;;;;;;;17.49;43.77;100006.25;5100641;28;20074;-62
2023/05/24 09:53:06;;;;;;;15.73;4.50;;;;;;;17.38;43.43;99995.41;5102341;28;20093;-62
2023/05/24 09:55:35;;;;;;;15.80;4.20;;;;;;;15.41;45.50;100013.72;5104517;28;20604;-62
2023/05/24 09:58:03;;;;;;;14.50;3.95;;;;;;;13.99;50.10;100007.03;5095767;28;20150;-62
2023/05/24 10:00:31;;;;;;;12.98;3.95;;;;;;;13.97;49.96;100017.22;5098032;28;20155;-62
2023/05/24 10:03:03;;;;;;;15.15;4.13;;;;;;;14.54;49.25;100020.78;5103122;28;20713;-62
2023/05/24 10:05:30;;;;;;;20.48;4.05;;;;;;;14.33;49.88;100004.28;5097871;28;20055;-62
2023/05/24 10:07:57;;;;;;;13.98;3.90;;;;;;;16.04;47.95;100004.00;5098264;28;20580;-62
2023/05/24 10:10:27;;;;;;;14.13;4.25;;;;;;;17.07;46.15;100005.34;5100911;28;20558;-61
2023/05/24 10:12:54;;;;;;;12.60;3.67;;;;;;;17.09;45.89;99997.78;5096100;28;20474;-62
2023/05/24 10:15:21;;;;;;;12.93;3.88;;;;;;;17.03;43.70;100001.56;5101244;28;20296;-63
2023/05/24 10:17:48;;;;;;;15.77;4.05;;;;;;;16.08;45.33;99999.72;5099185;28;20035;-60
2023/05/24 10:20:17;;;;;;;14.48;3.83;;;;;;;16.36;45.70;100005.84;5104331;28;20394;-62
2023/05/24 10:22:45;;;;;;;13.90;3.75;;;;;;;15.86;45.19;100001.72;5098128;28;20047;-63
2023/05/24 10:25:15;;;;;;;11.45;3.97;;;;;;;16.10;45.03;99997.56;5092709;28;20126;-60
2023/05/24 10:27:42;;;;;;;15.82;3.55;;;;;;;16.15;45.60;99991.38;5101401;28;20046;-63
2023/05/24 10:30:12;;;;;;;16.80;4.30;;;;;;;15.44;48.03;99989.69;5083215;28;20070;-61
2023/05/24 10:32:39;;;;;;;12.40;3.97;;;;;;;15.26;48.17;99982.78;5093975;28;20040;-62
2023/05/24 10:35:06;;;;;;;13.30;3.80;;;;;;;16.03;46.30;99980.75;5096575;28;20040;-62
2023/05/24 10:37:36;;;;;;;15.57;3.95;;;;;;;16.01;47.25;99985.59;5093514;28;20054;-61
2023/05/24 10:40:05;;;;;;;21.47;4.27;;;;;;;15.49;47.50;99980.81;5098406;28;20035;-62
2023/05/24 10:42:32;;;;;;;16.73;4.90;;;;;;;15.38;48.33;99979.13;5095977;28;20044;-62
2023/05/24 10:44:59;;;;;;;17.58;4.35;;;;;;;15.82;48.41;99968.97;5098703;28;20512;-61
2023/05/24 10:47:27;;;;;;;13.60;3.92;;;;;;;15.54;48.41;99983.56;5101071;28;20071;-61
2023/05/24 10:49:57;;;;;;;13.80;3.90;;;;;;;15.13;49.07;99979.69;5095271;28;20039;-62
2023/05/24 10:52:35;;;;;;;14.65;4.20;;;;;;;14.15;51.06;99983.81;5095878;28;20527;-61
2023/05/24 10:55:03;;;;;;;15.30;4.15;;;;;;;15.30;48.57;99973.09;5096361;28;20051;-61
2023/05/24 10:57:31;;;;;;;18.38;4.03;;;;;;;15.61;47.68;99975.25;5100411;28;20043;-60
2023/05/24 10:59:59;;;;;;;16.73;3.80;;;;;;;15.79;48.54;99976.78;5100225;28;20108;-60
2023/05/24 11:02:28;;;;;;;21.92;4.00;;;;;;;16.17;47.36;99968.41;5098579;28;20446;-60
2023/05/24 11:04:55;;;;;;;16.00;3.97;;;;;;;15.55;48.50;99969.00;5101254;28;20128;-60
2023/05/24 11:07:22;;;;;;;15.07;3.70;;;;;;;16.33;45.58;99965.78;5098021;28;20042;-61
2023/05/24 11:09:56;;;;;;;15.32;4.45;;;;;;;17.26;43.83;99962.34;5099283;28;20514;-60
2023/05/24 11:12:23;;;;;;;12.52;3.78;;;;;;;15.57;45.77;99972.25;5097896;28;20135;-60
2023/05/24 11:14:50;;;;;;;13.38;4.05;;;;;;;14.93;49.51;99977.56;5099686;28;20147;-61
2023/05/24 11:17:19;;;;;;;13.38;3.97;;;;;;;15.76;47.05;99961.09;5084321;28;20137;-60
2023/05/24 11:19:47;;;;;;;14.45;3.83;;;;;;;15.43;47.75;99971.06;5104271;28;20219;-60
2023/05/24 11:22:14;;;;;;;21.27;4.60;;;;;;;14.84;51.41;99972.59;5097056;28;20036;-61
2023/05/24 11:24:41;;;;;;;12.32;3.85;;;;;;;14.77;51.31;99977.38;5094621;28;20078;-61
2023/05/24 11:27:11;;;;;;;14.48;4.25;;;;;;;14.26;52.25;99973.19;5100050;28;20118;-61
2023/05/24 11:29:42;;;;;;;16.60;4.50;;;;;;;13.82;53.95;99974.69;5106317;28;20046;-61